createdAt,value
2017-09-29T00:00:48.699Z,21.73
2017-09-29T00:03:14.958Z,22.87
2017-09-29T00:05:41.175Z,21.73
2017-09-29T00:08:08.203Z,21.97
2017-09-29T00:10:35.227Z,21.30
2017-09-29T00:13:01.504Z,22.57
2017-09-29T00:15:40.187Z,22.90
2017-09-29T00:18:06.434Z,22.20
2017-09-29T00:20:33.438Z,23.00
2017-09-29T00:22:59.796Z,23.03
2017-09-29T00:25:26.024Z,21.80
2017-09-29T00:27:52.248Z,23.37
2017-09-29T00:30:18.563Z,22.83
2017-09-29T00:32:44.832Z,22.83
2017-09-29T00:35:11.830Z,21.50
2017-09-29T00:37:38.124Z,22.57
2017-09-29T00:40:04.488Z,22.60
2017-09-29T00:42:30.770Z,24.50
2017-09-29T00:44:57.994Z,26.43
2017-09-29T00:47:24.282Z,23.73
2017-09-29T00:49:50.607Z,25.20
2017-09-29T00:52:16.967Z,24.63
2017-09-29T00:54:43.295Z,23.00
2017-09-29T00:57:09.573Z,24.10
2017-09-29T00:59:37.051Z,27.00
2017-09-29T01:02:03.361Z,25.13
2017-09-29T01:04:30.441Z,25.33
2017-09-29T01:06:56.831Z,25.60
2017-09-29T01:09:23.110Z,26.10
2017-09-29T01:11:49.332Z,25.90
2017-09-29T01:14:15.637Z,27.80
2017-09-29T01:16:41.966Z,26.73
2017-09-29T01:19:08.976Z,28.37
2017-09-29T01:21:35.283Z,26.80
2017-09-29T01:24:01.633Z,25.90
2017-09-29T01:26:28.021Z,26.93
2017-09-29T01:28:54.365Z,27.63
2017-09-29T01:31:20.667Z,28.70
2017-09-29T01:33:47.671Z,28.20
2017-09-29T01:36:14.026Z,26.30
2017-09-29T01:38:40.289Z,26.87
2017-09-29T01:41:06.580Z,26.27
2017-09-29T01:43:33.011Z,27.40
2017-09-29T01:45:59.329Z,25.13
2017-09-29T01:48:25.640Z,26.57
2017-09-29T01:50:51.962Z,26.63
2017-09-29T01:53:18.267Z,26.30
2017-09-29T01:55:44.559Z,26.27
2017-09-29T01:58:10.867Z,26.03
2017-09-29T02:00:37.194Z,26.30
2017-09-29T02:03:03.505Z,26.23
2017-09-29T02:05:29.834Z,25.13
2017-09-29T02:07:56.151Z,26.90
2017-09-29T02:10:22.493Z,25.73
2017-09-29T02:12:48.763Z,24.67
2017-09-29T02:15:15.097Z,25.63
2017-09-29T02:17:41.480Z,26.90
2017-09-29T02:20:07.854Z,26.67
2017-09-29T02:22:34.189Z,25.50
2017-09-29T02:25:00.579Z,26.43
2017-09-29T02:27:26.903Z,27.23
2017-09-29T02:29:53.874Z,25.60
2017-09-29T02:32:20.135Z,27.80
2017-09-29T02:34:46.423Z,26.03
2017-09-29T02:37:13.168Z,26.40
2017-09-29T02:39:39.527Z,26.07
2017-09-29T02:42:05.901Z,28.13
2017-09-29T02:44:32.170Z,26.53
2017-09-29T02:46:58.465Z,27.67
2017-09-29T02:49:24.887Z,26.40
2017-09-29T02:51:51.961Z,27.50
2017-09-29T02:54:18.256Z,26.40
2017-09-29T02:56:52.721Z,26.93
2017-09-29T02:59:23.776Z,26.27
2017-09-29T03:01:54.088Z,26.13
2017-09-29T03:04:23.704Z,26.17
2017-09-29T03:06:50.009Z,28.27
2017-09-29T03:09:16.389Z,27.30
2017-09-29T03:11:42.655Z,27.37
2017-09-29T03:14:09.679Z,27.27
2017-09-29T03:16:36.018Z,25.90
2017-09-29T03:19:02.987Z,27.37
2017-09-29T03:21:30.002Z,27.57
2017-09-29T03:23:57.051Z,28.83
2017-09-29T03:26:23.351Z,28.47
2017-09-29T03:28:49.706Z,26.53
2017-09-29T03:31:16.085Z,28.50
2017-09-29T03:33:42.421Z,27.60
2017-09-29T03:36:08.741Z,27.57
2017-09-29T03:38:35.094Z,25.90
2017-09-29T03:41:01.385Z,26.30
2017-09-29T03:43:28.433Z,27.97
2017-09-29T03:45:55.415Z,26.83
2017-09-29T03:48:21.743Z,26.93
2017-09-29T03:50:56.217Z,26.53
2017-09-29T03:53:26.168Z,26.77
2017-09-29T03:55:54.726Z,26.73
2017-09-29T03:58:26.260Z,27.60
2017-09-29T04:00:52.591Z,27.90
2017-09-29T04:03:18.871Z,27.90
2017-09-29T04:05:45.182Z,26.67
2017-09-29T04:08:11.439Z,28.53
2017-09-29T04:10:37.750Z,27.30
2017-09-29T04:13:04.020Z,27.60
2017-09-29T04:15:30.358Z,26.70
2017-09-29T04:17:56.680Z,25.93
2017-09-29T04:20:22.923Z,27.90
2017-09-29T04:22:49.186Z,27.80
2017-09-29T04:25:15.474Z,27.23
2017-09-29T04:27:41.769Z,26.90
2017-09-29T04:30:08.090Z,27.43
2017-09-29T04:32:34.370Z,28.20
2017-09-29T04:35:00.651Z,25.33
2017-09-29T04:37:30.056Z,25.77
2017-09-29T04:39:56.720Z,28.10
2017-09-29T04:42:36.337Z,25.27
2017-09-29T04:47:55.706Z,28.53
2017-09-29T04:50:21.926Z,26.17
2017-09-29T04:52:50.240Z,27.30
2017-09-29T04:55:17.380Z,25.47
2017-09-29T04:57:43.924Z,28.13
2017-09-29T05:00:10.371Z,26.63
2017-09-29T05:02:36.671Z,26.27
2017-09-29T05:05:03.025Z,25.80
2017-09-29T05:07:29.237Z,26.47
2017-09-29T05:09:55.545Z,25.90
2017-09-29T05:12:22.519Z,27.90
2017-09-29T05:14:48.810Z,27.80
2017-09-29T05:17:15.818Z,28.67
2017-09-29T05:19:42.056Z,28.10
2017-09-29T05:22:08.427Z,27.57
2017-09-29T05:24:35.431Z,26.47
2017-09-29T05:27:01.728Z,27.83
2017-09-29T05:29:28.466Z,28.20
2017-09-29T05:31:54.823Z,26.77
2017-09-29T05:34:21.093Z,26.60
2017-09-29T05:36:48.111Z,27.20
2017-09-29T05:39:14.381Z,27.47
2017-09-29T05:41:41.386Z,25.90
2017-09-29T05:44:07.654Z,26.07
2017-09-29T05:46:34.693Z,27.60
2017-09-29T05:49:01.687Z,27.77
2017-09-29T05:51:27.978Z,27.70
2017-09-29T05:53:55.005Z,27.40
2017-09-29T05:56:21.304Z,27.83
2017-09-29T05:58:47.687Z,26.70
2017-09-29T06:01:14.684Z,28.13
2017-09-29T06:03:40.939Z,27.37
2017-09-29T06:06:07.226Z,27.50
2017-09-29T06:08:33.468Z,28.67
2017-09-29T06:10:59.765Z,26.60
2017-09-29T06:13:26.024Z,27.13
2017-09-29T06:15:52.308Z,29.00
2017-09-29T06:18:19.324Z,27.50
2017-09-29T06:20:45.578Z,26.50
2017-09-29T06:23:11.857Z,27.80
2017-09-29T06:25:38.132Z,29.23
2017-09-29T06:28:04.468Z,29.10
2017-09-29T06:30:31.614Z,25.87
2017-09-29T06:32:57.831Z,26.67
2017-09-29T06:35:24.108Z,25.80
2017-09-29T06:37:50.356Z,26.70
2017-09-29T06:40:16.737Z,25.13
2017-09-29T06:42:43.731Z,28.13
2017-09-29T06:45:09.979Z,27.70
2017-09-29T06:47:36.187Z,26.50
2017-09-29T06:50:02.436Z,26.47
2017-09-29T06:52:28.649Z,28.07
2017-09-29T06:54:54.998Z,24.30
2017-09-29T06:57:21.300Z,27.07
2017-09-29T06:59:47.622Z,26.87
2017-09-29T07:02:13.894Z,26.80
2017-09-29T07:04:40.183Z,25.83
2017-09-29T07:07:06.499Z,25.97
2017-09-29T07:09:33.567Z,24.87
2017-09-29T07:11:59.859Z,24.27
2017-09-29T07:14:26.153Z,26.53
2017-09-29T07:16:52.454Z,24.67
2017-09-29T07:19:18.769Z,25.37
2017-09-29T07:21:45.149Z,23.90
2017-09-29T07:24:11.435Z,24.67
2017-09-29T07:26:44.016Z,22.90
2017-09-29T07:29:13.978Z,25.50
2017-09-29T07:31:43.405Z,24.30
2017-09-29T07:34:10.445Z,23.47
2017-09-29T07:36:36.737Z,23.47
2017-09-29T07:39:03.075Z,24.07
2017-09-29T07:41:29.338Z,24.03
2017-09-29T07:43:55.647Z,22.83
2017-09-29T07:46:22.098Z,22.27
2017-09-29T07:48:48.451Z,22.07
2017-09-29T07:51:15.501Z,22.10
2017-09-29T07:53:42.637Z,23.07
2017-09-29T07:56:09.706Z,22.20
2017-09-29T07:58:35.976Z,22.27
2017-09-29T08:01:02.264Z,22.33
2017-09-29T08:03:29.299Z,21.80
2017-09-29T08:05:56.325Z,21.57
2017-09-29T08:08:22.667Z,20.77
2017-09-29T08:10:49.642Z,20.63
2017-09-29T08:13:15.867Z,21.73
2017-09-29T08:15:42.893Z,21.03
2017-09-29T08:18:09.866Z,22.60
2017-09-29T08:20:36.110Z,21.10
2017-09-29T08:23:02.379Z,21.50
2017-09-29T08:25:28.662Z,20.00
2017-09-29T08:27:54.959Z,19.53
2017-09-29T08:30:21.978Z,21.10
2017-09-29T08:32:48.227Z,19.10
2017-09-29T08:35:14.493Z,20.87
2017-09-29T08:37:40.821Z,19.80
2017-09-29T08:40:07.066Z,21.10
2017-09-29T08:42:33.373Z,21.93
2017-09-29T08:44:59.823Z,21.57
2017-09-29T08:47:26.082Z,20.37
2017-09-29T08:49:52.287Z,20.30
2017-09-29T08:52:18.867Z,21.00
2017-09-29T08:54:45.084Z,19.90
2017-09-29T08:57:11.402Z,20.60
2017-09-29T08:59:37.626Z,19.80
2017-09-29T09:02:03.900Z,20.87
2017-09-29T09:04:30.960Z,19.67
2017-09-29T09:06:57.252Z,20.30
2017-09-29T09:09:23.510Z,18.53
2017-09-29T09:11:50.513Z,20.07
2017-09-29T09:14:16.845Z,18.57
2017-09-29T09:16:43.178Z,21.07
2017-09-29T09:19:09.442Z,18.17
2017-09-29T09:21:36.504Z,18.30
2017-09-29T09:24:03.558Z,17.90
2017-09-29T09:26:29.814Z,19.00
2017-09-29T09:28:56.093Z,18.70
2017-09-29T09:31:23.106Z,18.77
2017-09-29T09:33:49.343Z,18.60
2017-09-29T09:36:15.630Z,17.20
2017-09-29T09:38:41.921Z,17.73
2017-09-29T09:41:09.188Z,17.17
2017-09-29T09:43:36.174Z,17.10
2017-09-29T09:46:02.466Z,17.80
2017-09-29T09:48:29.455Z,19.10
2017-09-29T09:50:55.757Z,18.47
2017-09-29T09:53:22.044Z,18.50
2017-09-29T09:55:48.296Z,18.27
2017-09-29T09:58:15.280Z,18.30
2017-09-29T10:00:41.547Z,18.70
2017-09-29T10:03:07.811Z,18.97
2017-09-29T10:05:34.861Z,18.70
2017-09-29T10:08:01.851Z,19.70
2017-09-29T10:10:28.149Z,18.70
2017-09-29T10:12:54.440Z,20.03
2017-09-29T10:15:20.724Z,19.30
2017-09-29T10:17:47.003Z,18.60
2017-09-29T10:20:13.186Z,18.83
2017-09-29T10:22:39.862Z,18.30
2017-09-29T10:25:06.134Z,17.70
2017-09-29T10:27:32.370Z,18.20
2017-09-29T10:29:58.657Z,18.67
2017-09-29T10:32:24.938Z,19.90
2017-09-29T10:34:51.625Z,19.33
2017-09-29T10:37:17.846Z,19.00
2017-09-29T10:39:44.151Z,17.70
2017-09-29T10:42:10.445Z,18.47
2017-09-29T10:44:36.741Z,23.80
2017-09-29T10:47:03.003Z,19.53
2017-09-29T10:49:29.278Z,23.77
2017-09-29T10:51:55.547Z,22.10
2017-09-29T10:54:22.553Z,21.87
2017-09-29T10:56:48.802Z,21.30
2017-09-29T10:59:15.439Z,20.80
2017-09-29T11:01:41.721Z,19.50
2017-09-29T11:04:08.198Z,22.47
2017-09-29T11:06:35.624Z,25.80
2017-09-29T11:09:01.973Z,25.63
2017-09-29T11:11:28.619Z,26.53
2017-09-29T11:13:54.906Z,28.03
2017-09-29T11:16:21.206Z,26.30
2017-09-29T11:18:48.360Z,26.20
2017-09-29T11:21:15.378Z,26.83
2017-09-29T11:23:42.067Z,23.50
2017-09-29T11:26:08.360Z,25.10
2017-09-29T11:28:34.675Z,27.73
2017-09-29T11:31:00.995Z,27.50
2017-09-29T11:33:27.282Z,28.37
2017-09-29T11:35:53.608Z,26.40
2017-09-29T11:38:20.618Z,28.57
2017-09-29T11:40:47.589Z,24.70
2017-09-29T11:43:14.657Z,25.50
2017-09-29T11:45:40.990Z,23.40
2017-09-29T11:48:07.283Z,24.70
2017-09-29T11:50:33.552Z,24.10
2017-09-29T11:52:59.771Z,22.77
2017-09-29T11:55:26.858Z,25.50
2017-09-29T11:57:53.113Z,24.63
2017-09-29T12:00:19.459Z,26.50
2017-09-29T12:02:46.451Z,25.03
2017-09-29T12:05:12.694Z,23.60
2017-09-29T12:07:38.993Z,25.00
2017-09-29T12:10:05.282Z,23.53
2017-09-29T12:12:31.960Z,25.40
2017-09-29T12:14:58.302Z,24.93
2017-09-29T12:17:24.581Z,24.50
2017-09-29T12:19:50.864Z,24.00
2017-09-29T12:22:17.104Z,24.87
2017-09-29T12:24:43.821Z,25.57
2017-09-29T12:27:10.074Z,23.80
2017-09-29T12:29:36.377Z,26.03
2017-09-29T12:32:02.620Z,25.40
2017-09-29T12:34:28.918Z,24.30
2017-09-29T12:36:55.919Z,24.77
2017-09-29T12:39:22.185Z,25.73
2017-09-29T12:41:49.177Z,27.00
2017-09-29T12:44:15.867Z,25.17
2017-09-29T12:46:42.109Z,24.93
2017-09-29T12:49:09.140Z,25.30
2017-09-29T12:51:35.450Z,26.60
2017-09-29T12:54:01.731Z,27.37
2017-09-29T12:56:28.782Z,27.03
2017-09-29T12:58:55.064Z,26.93
2017-09-29T13:01:21.926Z,27.50
2017-09-29T13:03:48.214Z,26.37
2017-09-29T13:06:14.516Z,28.30
2017-09-29T13:08:40.743Z,27.70
2017-09-29T13:11:07.027Z,27.60
2017-09-29T13:13:33.393Z,28.20
2017-09-29T13:15:59.719Z,30.00
2017-09-29T13:18:26.837Z,27.83
2017-09-29T13:20:53.122Z,29.47
2017-09-29T13:23:19.415Z,30.00
2017-09-29T13:25:46.048Z,28.87
2017-09-29T13:28:12.347Z,29.73
2017-09-29T13:30:38.629Z,32.23
2017-09-29T13:33:05.722Z,30.73
2017-09-29T13:35:32.021Z,30.57
2017-09-29T13:37:58.622Z,30.30
2017-09-29T13:40:24.900Z,29.30
2017-09-29T13:42:51.170Z,27.67
2017-09-29T13:45:17.478Z,29.03
2017-09-29T13:47:43.690Z,30.80
2017-09-29T13:50:10.413Z,31.97
2017-09-29T13:52:36.709Z,31.37
2017-09-29T13:55:03.798Z,30.77
2017-09-29T13:57:30.098Z,33.87
2017-09-29T13:59:57.164Z,33.33
2017-09-29T14:02:24.625Z,32.17
2017-09-29T14:04:50.928Z,34.50
2017-09-29T14:07:17.887Z,33.00
2017-09-29T14:09:44.880Z,33.60
2017-09-29T14:12:11.178Z,32.67
2017-09-29T14:14:37.881Z,31.47
2017-09-29T14:17:04.133Z,31.47
2017-09-29T14:19:31.181Z,32.30
2017-09-29T14:21:58.240Z,31.93
2017-09-29T14:24:24.497Z,31.40
2017-09-29T14:26:50.802Z,30.13
2017-09-29T14:29:17.081Z,30.90
2017-09-29T14:31:43.324Z,30.23
2017-09-29T14:34:09.653Z,32.13
2017-09-29T14:36:35.898Z,30.10
2017-09-29T14:39:03.362Z,30.50
2017-09-29T14:41:30.389Z,29.60
2017-09-29T14:43:56.654Z,30.33
2017-09-29T14:46:22.934Z,30.43
2017-09-29T14:48:49.218Z,30.00
2017-09-29T14:51:15.966Z,31.10
2017-09-29T14:53:42.277Z,31.40
2017-09-29T14:56:08.585Z,31.70
2017-09-29T14:58:35.595Z,31.50
2017-09-29T15:01:01.859Z,30.73
2017-09-29T15:03:28.877Z,31.17
2017-09-29T15:05:55.192Z,31.10
2017-09-29T15:08:21.444Z,31.50
2017-09-29T15:10:48.482Z,35.77
2017-09-29T15:13:14.745Z,31.37
2017-09-29T15:15:42.121Z,30.90
2017-09-29T15:18:08.382Z,32.37
2017-09-29T15:20:34.702Z,32.43
2017-09-29T15:23:00.994Z,32.87
2017-09-29T15:25:28.765Z,32.50
2017-09-29T15:27:55.833Z,30.57
2017-09-29T15:30:22.094Z,33.03
2017-09-29T15:32:48.386Z,31.57
2017-09-29T15:35:14.644Z,31.93
2017-09-29T15:37:40.952Z,30.47
2017-09-29T15:40:07.179Z,31.87
2017-09-29T15:42:33.453Z,32.83
2017-09-29T15:44:59.773Z,31.97
2017-09-29T15:47:26.066Z,30.80
2017-09-29T15:49:52.334Z,33.87
2017-09-29T15:52:18.891Z,31.40
2017-09-29T15:54:45.193Z,31.50
2017-09-29T15:57:11.451Z,31.77
2017-09-29T15:59:37.661Z,33.37
2017-09-29T16:02:03.920Z,32.47
2017-09-29T16:04:30.254Z,30.97
2017-09-29T16:06:57.246Z,34.03
2017-09-29T16:09:23.475Z,30.90
2017-09-29T16:11:49.765Z,31.77
2017-09-29T16:14:16.897Z,31.57
2017-09-29T16:16:43.975Z,30.20
2017-09-29T16:19:10.220Z,30.87
2017-09-29T16:21:36.488Z,30.87
2017-09-29T16:24:02.789Z,32.20
2017-09-29T16:26:29.043Z,29.00
2017-09-29T16:28:55.263Z,28.70
2017-09-29T16:31:21.560Z,28.80
2017-09-29T16:33:47.870Z,28.70
2017-09-29T16:36:14.886Z,29.13
2017-09-29T16:38:41.153Z,30.23
2017-09-29T16:41:08.193Z,29.60
2017-09-29T16:43:35.270Z,29.57
2017-09-29T16:46:01.534Z,28.77
2017-09-29T16:48:27.824Z,30.20
2017-09-29T16:50:54.472Z,29.07
2017-09-29T16:53:20.758Z,30.00
2017-09-29T16:55:47.746Z,30.57
2017-09-29T16:58:13.976Z,28.70
2017-09-29T17:00:40.289Z,30.07
2017-09-29T17:03:06.568Z,30.40
2017-09-29T17:05:33.265Z,30.63
2017-09-29T17:07:59.514Z,29.90
2017-09-29T17:10:25.836Z,30.30
2017-09-29T17:12:52.181Z,29.70
2017-09-29T17:15:18.407Z,30.50
2017-09-29T17:17:44.710Z,29.13
2017-09-29T17:20:10.996Z,26.93
2017-09-29T17:22:37.223Z,27.80
2017-09-29T17:25:03.498Z,27.40
2017-09-29T17:27:29.909Z,28.43
2017-09-29T17:29:56.897Z,26.67
2017-09-29T17:32:23.134Z,27.30
2017-09-29T17:34:49.413Z,29.37
2017-09-29T17:37:16.409Z,27.40
2017-09-29T17:39:42.942Z,26.93
2017-09-29T17:42:09.210Z,26.47
2017-09-29T17:44:35.855Z,26.20
2017-09-29T17:47:03.040Z,26.53
2017-09-29T17:49:29.316Z,26.00
2017-09-29T17:51:55.597Z,28.53
2017-09-29T17:54:22.626Z,30.50
2017-09-29T17:56:49.624Z,27.90
2017-09-29T17:59:16.226Z,27.80
2017-09-29T18:01:42.550Z,27.27
2017-09-29T18:04:09.543Z,28.47
2017-09-29T18:06:35.834Z,28.00
2017-09-29T18:09:02.102Z,27.07
2017-09-29T18:11:30.183Z,26.60
2017-09-29T18:13:56.510Z,27.23
2017-09-29T18:16:22.767Z,29.00
2017-09-29T18:18:49.064Z,28.70
2017-09-29T18:21:15.395Z,30.07
2017-09-29T18:23:41.726Z,29.60
2017-09-29T18:26:07.974Z,27.50
2017-09-29T18:28:34.237Z,28.13
2017-09-29T18:31:01.248Z,27.43
2017-09-29T18:33:27.680Z,26.00
2017-09-29T18:35:54.505Z,24.70
2017-09-29T18:38:20.782Z,26.10
2017-09-29T18:41:08.126Z,26.30
2017-09-29T18:52:40.464Z,25.27
2017-09-29T18:55:07.926Z,24.93
2017-09-29T18:57:34.235Z,25.97
2017-09-29T19:00:00.507Z,25.80
2017-09-29T19:02:26.832Z,29.80
2017-09-29T19:04:53.098Z,27.20
2017-09-29T19:07:19.730Z,26.70
2017-09-29T19:09:45.991Z,26.23
2017-09-29T19:12:12.311Z,26.13
2017-09-29T19:14:39.644Z,26.00
2017-09-29T19:17:05.968Z,26.80
2017-09-29T19:19:32.983Z,24.83
2017-09-29T19:21:59.254Z,24.60
2017-09-29T19:24:25.587Z,25.70
2017-09-29T19:26:51.930Z,24.43
2017-09-29T19:29:18.970Z,22.87
2017-09-29T19:31:45.211Z,24.60
2017-09-29T19:34:12.282Z,25.63
2017-09-29T19:36:38.605Z,25.67
2017-09-29T19:39:04.905Z,26.63
2017-09-29T19:41:31.963Z,26.40
2017-09-29T19:43:59.073Z,25.57
2017-09-29T19:46:25.385Z,25.60
2017-09-29T19:48:51.713Z,25.80
2017-09-29T19:51:18.295Z,27.20
2017-09-29T19:53:44.575Z,25.40
2017-09-29T19:56:10.830Z,26.80
2017-09-29T19:58:37.502Z,24.97
2017-09-29T20:01:03.817Z,23.73
2017-09-29T20:03:30.090Z,25.33
2017-09-29T20:05:56.406Z,24.50
2017-09-29T20:08:22.729Z,26.10
2017-09-29T20:10:49.786Z,25.03
2017-09-29T20:13:16.438Z,27.33
2017-09-29T20:15:42.729Z,25.07
2017-09-29T20:18:08.969Z,25.53
2017-09-29T20:20:35.606Z,25.37
2017-09-29T20:23:02.610Z,25.10
2017-09-29T20:25:28.950Z,25.10
2017-09-29T20:27:55.228Z,24.47
2017-09-29T20:30:22.277Z,26.27
2017-09-29T20:32:48.563Z,25.50
2017-09-29T20:35:15.280Z,24.90
2017-09-29T20:37:41.646Z,24.80
2017-09-29T20:40:07.895Z,24.40
2017-09-29T20:42:35.235Z,25.47
2017-09-29T20:45:01.466Z,24.10
2017-09-29T20:47:27.755Z,25.67
2017-09-29T20:49:54.049Z,25.50
2017-09-29T20:52:20.345Z,24.33
2017-09-29T20:54:46.649Z,23.57
2017-09-29T20:57:12.974Z,24.40
2017-09-29T20:59:39.274Z,26.03
2017-09-29T21:02:05.578Z,25.40
2017-09-29T21:04:31.861Z,25.60
2017-09-29T21:06:58.131Z,22.67
2017-09-29T21:09:24.405Z,25.90
2017-09-29T21:11:50.722Z,24.77
2017-09-29T21:14:16.941Z,24.80
2017-09-29T21:16:43.927Z,24.60
2017-09-29T21:19:10.555Z,26.00
2017-09-29T21:21:36.810Z,25.00
2017-09-29T21:24:03.062Z,25.50
2017-09-29T21:26:29.741Z,25.60
2017-09-29T21:28:56.042Z,24.33
2017-09-29T21:31:23.107Z,25.90
2017-09-29T21:33:50.198Z,25.30
2017-09-29T21:36:16.459Z,25.33
2017-09-29T21:38:42.737Z,26.40
2017-09-29T21:41:08.986Z,26.97
2017-09-29T21:43:35.280Z,26.50
2017-09-29T21:46:01.626Z,26.47
2017-09-29T21:48:27.835Z,24.97
2017-09-29T21:50:54.803Z,25.73
2017-09-29T21:53:21.080Z,27.27
2017-09-29T21:55:47.363Z,26.37
2017-09-29T21:58:13.589Z,26.00
2017-09-29T22:00:39.929Z,26.57
2017-09-29T22:03:06.222Z,26.43
2017-09-29T22:05:33.601Z,27.90
2017-09-29T22:07:59.855Z,27.53
2017-09-29T22:10:26.167Z,27.03
2017-09-29T22:12:52.451Z,30.07
2017-09-29T22:15:18.684Z,30.00
2017-09-29T22:17:45.711Z,32.80
2017-09-29T22:20:12.057Z,32.80
2017-09-29T22:22:39.103Z,31.03
2017-09-29T22:25:05.362Z,28.47
2017-09-29T22:27:31.633Z,28.60
2017-09-29T22:29:58.337Z,29.37
2017-09-29T22:32:24.649Z,29.20
2017-09-29T22:34:51.620Z,28.60
2017-09-29T22:37:18.216Z,28.40
2017-09-29T22:39:45.254Z,30.20
2017-09-29T22:42:11.506Z,30.10
2017-09-29T22:44:38.897Z,27.50
2017-09-29T22:47:05.150Z,28.47
2017-09-29T22:49:31.441Z,28.50
2017-09-29T22:51:58.039Z,28.60
2017-09-29T22:54:24.251Z,27.03
2017-09-29T22:56:50.538Z,27.57
2017-09-29T22:59:17.149Z,26.27
2017-09-29T23:01:44.133Z,27.47
2017-09-29T23:04:10.371Z,26.73
2017-09-29T23:06:37.018Z,27.90
2017-09-29T23:09:03.313Z,26.23
2017-09-29T23:11:29.551Z,25.80
2017-09-29T23:13:56.259Z,26.37
2017-09-29T23:16:23.265Z,27.03
2017-09-29T23:18:49.502Z,27.40
2017-09-29T23:21:16.219Z,25.53
2017-09-29T23:23:42.545Z,26.90
2017-09-29T23:26:08.884Z,26.00
2017-09-29T23:28:35.549Z,27.07
2017-09-29T23:31:01.802Z,25.30
2017-09-29T23:33:28.089Z,27.00
2017-09-29T23:35:54.802Z,27.67
2017-09-29T23:38:21.131Z,25.40
2017-09-29T23:40:47.331Z,25.23
2017-09-29T23:43:14.002Z,23.63
2017-09-29T23:45:40.259Z,28.30
2017-09-29T23:48:06.554Z,25.53
2017-09-29T23:50:33.209Z,26.27
2017-09-29T23:52:59.490Z,25.60
2017-09-29T23:55:25.757Z,24.37
2017-09-29T23:57:52.352Z,25.13
